Arlington, KY

10:11 AM CDT on March 30, 2015 (GMT -0500)
APRSWXNET Dorena MO US | | Change Station
CLOSE
Current Station
Personal Weather Station
Location: Wolf Island, MO
Elevation: 275 ft
Nearby Weather Stations
Active Advisory: Flood Warning

Elev 275 ft 36.66 °N, 89.20 °W | Updated 41 minutes ago

Clear
Clear
53 °F
Feels Like 53 °F
N
4
Wind Variable Wind from North
Gusts 6.0 mph

Today
High -- | Low -- °F
--% Chance of Precip.
Yesterday
High -- | Low -- °F
Precip. -- in
6:45 AM 7:16 PM
Waxing Gibbous, 80% visible
Pressure 30.23 in
Visibility 10.0 miles
Clouds Clear
Dew Point 43 °F
Humidity 70%
Rainfall in
Snow Depth Not available.
UV 4 out of 12
Pollen 9.20 out of 12
Air Quality Not available.
Flu Activity Not available.
METAR KCIR 301455Z AUTO 02008KT 10SM CLR 14/01 A3023 RMK AO2 T01390011

More Conditions Fewer Conditions

Pressure 30.23 in
Visibility 10.0 miles
Clouds Clear
Dew Point 43 °F
Humidity 70%
Rainfall in
Snow Depth Not available.
UV 4 out of 12
Pollen 9.20 out of 12
Air Quality Not available.
Flu Activity Not available.
METAR KCIR 301455Z AUTO 02008KT 10SM CLR 14/01 A3023 RMK AO2 T01390011

More Conditions Fewer Conditions

10-Day Weather Forecast

Almanac

Astronomy

Mar. 30, 2015 Rise Set
Actual Time
Civil Twilight
Nautical Twilight
Astronomical Twilight
Moon
Length of Visible Light
Length of Day
Tomorrow will be .
, % of the Moon is Illuminated

Today's Extremes

State Highs State Lows

Community

WunderPhotos

Upload Photos

1,809,519 photos uploaded!

WunderBlogs® & News

Nearby

Air Quality

  Air Quality AQ Index Pollutant
Not available.

Snow Depth

Station Depth Elevation

Earthquake Activity

City Distance Mag. Time & Date
Minimum magnitude displayed is 2.5.

Coastal Water Temperatures

Place Temperature

Stations

Nearby Weather Stations

Station Location Temp. Windchill Dew Point Humidity Wind Precip. Elev Updated Type
                   
Flood Warning
Statement as of 9:16 PM CDT on March 29, 2015

The Flood Warning continues for
the Ohio River at Cairo
* until Tuesday morning.
* At 9:00 PM Sunday the stage was 43.2 feet.
* Flood stage is 40.0 feet.
* Minor flooding is occurring and minor flooding is forecast.
* Forecast... the river will continue to fall to below flood stage by
Tuesday morning.


Lat... Lon 3709 8946 3651 8918 3680 8900 3709 8907
      3717 8916